Terminal Aerodrome Forecast
Issued by NWS Twin Cities, MN

Home | Current Version | Previous Version | Text Only | Print | Product List | Glossary Off
Versions: 1 2 3 4 5 6 7 8 9 10 11 12 13 14 15 16 17 18 19 20

000
FTUS43 KMPX 301500 AAC
TAFEAU
TAF AMD
KEAU 301500Z 3015/3112 VRB03KT P6SM SCT050
      TEMPO 3015/3017 1SM BR OVC002
     FM301800 31009KT P6SM VCSH BKN050
     FM310100 30003KT P6SM SKC=

USA.gov is the U.S. government's official web portal to all federal, state and local government web resources and services.